createdAt,value
2018-07-15T00:01:07.162Z,5.13
2018-07-15T00:03:35.421Z,5.20
2018-07-15T00:06:03.718Z,5.20
2018-07-15T00:08:32.008Z,5.37
2018-07-15T00:11:00.288Z,4.93
2018-07-15T00:13:28.593Z,5.67
2018-07-15T00:15:56.889Z,5.87
2018-07-15T00:18:25.176Z,5.20
2018-07-15T00:20:53.448Z,5.57
2018-07-15T00:23:21.735Z,4.97
2018-07-15T00:25:50.223Z,5.77
2018-07-15T00:28:18.537Z,6.07
2018-07-15T00:30:46.861Z,5.70
2018-07-15T00:33:15.137Z,5.70
2018-07-15T00:35:43.488Z,5.60
2018-07-15T00:38:11.847Z,5.77
2018-07-15T00:40:40.135Z,6.00
2018-07-15T00:43:08.737Z,5.70
2018-07-15T00:45:37.024Z,5.63
2018-07-15T00:48:05.347Z,6.43
2018-07-15T00:50:33.595Z,6.23
2018-07-15T00:53:01.958Z,6.60
2018-07-15T00:55:30.390Z,6.47
2018-07-15T00:57:58.663Z,6.57
2018-07-15T01:00:32.440Z,6.17
2018-07-15T01:03:00.704Z,6.20
2018-07-15T01:05:28.953Z,6.53
2018-07-15T01:07:57.293Z,6.13
2018-07-15T01:10:25.579Z,6.27
2018-07-15T01:12:53.942Z,6.43
2018-07-15T01:15:22.229Z,6.17
2018-07-15T01:17:50.565Z,6.30
2018-07-15T01:20:18.797Z,6.27
2018-07-15T01:22:47.067Z,6.93
2018-07-15T01:25:15.415Z,6.30
2018-07-15T01:27:43.673Z,7.13
2018-07-15T01:30:12.106Z,6.93
2018-07-15T01:32:40.394Z,6.20
2018-07-15T01:35:08.902Z,6.90
2018-07-15T01:37:37.185Z,7.13
2018-07-15T01:40:05.428Z,6.80
2018-07-15T01:42:33.762Z,6.60
2018-07-15T01:45:02.020Z,7.30
2018-07-15T01:47:30.291Z,7.20
2018-07-15T01:49:58.588Z,7.03
2018-07-15T01:52:26.850Z,7.17
2018-07-15T01:54:55.132Z,7.63
2018-07-15T01:57:23.549Z,7.63
2018-07-15T01:59:51.791Z,7.57
2018-07-15T02:02:20.039Z,7.10
2018-07-15T02:04:48.308Z,6.80
2018-07-15T02:07:16.582Z,7.43
2018-07-15T02:09:44.909Z,7.60
2018-07-15T02:12:13.216Z,7.23
2018-07-15T02:14:41.502Z,8.10
2018-07-15T02:17:10.099Z,7.67
2018-07-15T02:19:38.346Z,8.87
2018-07-15T02:22:06.602Z,8.70
2018-07-15T02:24:34.889Z,8.30
2018-07-15T02:27:03.194Z,7.70
2018-07-15T02:29:31.673Z,8.50
2018-07-15T02:31:59.917Z,8.20
2018-07-15T02:34:28.225Z,8.03
2018-07-15T02:36:56.498Z,7.87
2018-07-15T02:39:24.784Z,7.67
2018-07-15T02:41:53.022Z,8.30
2018-07-15T02:44:21.358Z,9.37
2018-07-15T02:46:49.722Z,8.63
2018-07-15T02:49:18.016Z,8.43
2018-07-15T02:51:46.409Z,9.20
2018-07-15T02:54:14.903Z,8.57
2018-07-15T02:56:43.163Z,8.23
2018-07-15T02:59:11.511Z,8.33
2018-07-15T03:01:39.795Z,8.47
2018-07-15T03:04:08.242Z,8.73
2018-07-15T03:06:36.517Z,8.70
2018-07-15T03:09:07.027Z,7.87
2018-07-15T03:11:35.331Z,8.00
2018-07-15T03:14:03.628Z,9.30
2018-07-15T03:16:31.865Z,9.23
2018-07-15T03:19:00.160Z,9.10
2018-07-15T03:21:28.459Z,9.30
2018-07-15T03:23:56.812Z,10.07
2018-07-15T03:26:25.104Z,9.73
2018-07-15T03:28:53.406Z,9.10
2018-07-15T03:31:21.761Z,9.27
2018-07-15T03:33:50.164Z,8.87
2018-07-15T03:36:18.432Z,8.70
2018-07-15T03:38:46.665Z,8.50
2018-07-15T03:41:15.318Z,8.17
2018-07-15T03:43:43.622Z,9.37
2018-07-15T03:46:11.878Z,8.83
2018-07-15T03:48:40.149Z,8.97
2018-07-15T03:51:08.508Z,9.07
2018-07-15T03:53:36.808Z,9.10
2018-07-15T03:56:05.133Z,9.07
2018-07-15T03:58:33.620Z,9.03
2018-07-15T04:01:01.903Z,8.83
2018-07-15T04:03:30.194Z,9.40
2018-07-15T04:05:58.545Z,9.50
2018-07-15T04:08:26.833Z,9.67
2018-07-15T04:10:55.099Z,10.37
2018-07-15T04:13:23.384Z,10.33
2018-07-15T04:15:52.287Z,9.77
2018-07-15T04:18:20.529Z,10.63
2018-07-15T04:20:48.792Z,10.90
2018-07-15T04:23:17.268Z,10.30
2018-07-15T04:25:45.835Z,10.03
2018-07-15T04:28:14.385Z,10.57
2018-07-15T04:30:42.664Z,10.83
2018-07-15T04:33:10.917Z,10.00
2018-07-15T04:35:39.575Z,11.03
2018-07-15T04:38:07.863Z,10.70
2018-07-15T04:40:36.221Z,10.50
2018-07-15T04:43:04.550Z,11.40
2018-07-15T04:45:33.182Z,11.53
2018-07-15T04:48:01.461Z,10.60
2018-07-15T04:50:29.716Z,10.67
2018-07-15T04:52:58.005Z,11.83
2018-07-15T04:55:26.289Z,11.30
2018-07-15T04:57:54.574Z,10.90
2018-07-15T05:00:22.852Z,11.13
2018-07-15T05:02:51.121Z,11.57
2018-07-15T05:05:19.742Z,11.10
2018-07-15T05:07:48.004Z,11.50
2018-07-15T05:10:16.276Z,10.73
2018-07-15T05:12:44.630Z,10.60
2018-07-15T05:15:12.878Z,11.33
2018-07-15T05:17:41.153Z,11.07
2018-07-15T05:20:09.412Z,10.97
2018-07-15T05:22:37.744Z,10.80
2018-07-15T05:25:06.172Z,10.53
2018-07-15T05:27:34.430Z,10.80
2018-07-15T05:30:02.678Z,10.50
2018-07-15T05:32:31.955Z,10.47
2018-07-15T05:35:00.263Z,11.13
2018-07-15T05:37:28.851Z,10.77
2018-07-15T05:39:57.203Z,10.73
2018-07-15T05:42:25.495Z,10.27
2018-07-15T05:44:53.843Z,11.83
2018-07-15T05:47:22.126Z,10.43
2018-07-15T05:49:50.514Z,11.10
2018-07-15T05:52:18.757Z,11.07
2018-07-15T05:54:47.064Z,10.30
2018-07-15T05:57:15.366Z,10.33
2018-07-15T05:59:43.653Z,10.77
2018-07-15T06:02:11.963Z,10.20
2018-07-15T06:04:40.307Z,10.73
2018-07-15T06:07:08.596Z,8.90
2018-07-15T06:09:36.896Z,9.10
2018-07-15T06:12:05.257Z,8.90
2018-07-15T06:14:33.561Z,8.00
2018-07-15T06:17:01.999Z,8.90
2018-07-15T06:19:30.324Z,8.60
2018-07-15T06:21:58.611Z,7.70
2018-07-15T06:24:26.896Z,8.30
2018-07-15T06:26:55.148Z,7.30
2018-07-15T06:29:23.419Z,6.93
2018-07-15T06:31:52.064Z,7.03
2018-07-15T06:34:20.424Z,6.47
2018-07-15T06:36:48.724Z,6.40
2018-07-15T06:39:16.998Z,6.60
2018-07-15T06:41:45.235Z,6.20
2018-07-15T06:44:13.519Z,5.97
2018-07-15T06:46:41.848Z,6.30
2018-07-15T06:49:10.171Z,6.37
2018-07-15T06:51:38.471Z,6.13
2018-07-15T06:54:06.936Z,6.20
2018-07-15T06:56:35.118Z,5.60
2018-07-15T06:59:03.464Z,6.00
2018-07-15T07:01:31.811Z,5.33
2018-07-15T07:04:00.103Z,5.90
2018-07-15T07:06:28.393Z,5.40
2018-07-15T07:08:56.704Z,4.60
2018-07-15T07:11:25.011Z,4.90
2018-07-15T07:13:53.256Z,4.70
2018-07-15T07:16:21.542Z,4.17
2018-07-15T07:18:49.917Z,4.03
2018-07-15T07:21:18.180Z,3.70
2018-07-15T07:23:46.460Z,3.73
2018-07-15T07:26:15.253Z,4.10
2018-07-15T07:28:43.577Z,3.63
2018-07-15T07:31:11.770Z,3.07
2018-07-15T07:33:40.473Z,3.63
2018-07-15T07:36:08.786Z,3.03
2018-07-15T07:38:37.078Z,3.50
2018-07-15T07:41:05.395Z,3.27
2018-07-15T07:43:33.728Z,3.90
2018-07-15T07:46:02.048Z,3.30
2018-07-15T07:48:31.304Z,2.83
2018-07-15T07:50:59.633Z,3.53
2018-07-15T07:53:28.054Z,2.97
2018-07-15T07:55:56.288Z,3.20
2018-07-15T07:58:24.565Z,3.40
2018-07-15T08:00:52.905Z,3.17
2018-07-15T08:03:21.192Z,2.90
2018-07-15T08:05:49.484Z,3.13
2018-07-15T08:08:17.856Z,2.80
2018-07-15T08:10:46.151Z,2.73
2018-07-15T08:13:14.461Z,2.50
2018-07-15T08:15:42.752Z,1.97
2018-07-15T08:18:11.436Z,2.20
2018-07-15T08:20:39.710Z,2.10
2018-07-15T08:23:08.101Z,1.90
2018-07-15T08:25:36.609Z,2.03
2018-07-15T08:28:04.933Z,2.20
2018-07-15T08:30:44.388Z,2.30
2018-07-15T08:33:12.661Z,1.80
2018-07-15T08:35:41.178Z,1.70
2018-07-15T08:38:09.645Z,1.80
2018-07-15T08:40:38.043Z,2.30
2018-07-15T08:43:06.461Z,2.30
2018-07-15T08:45:34.774Z,2.30
2018-07-15T08:48:03.418Z,1.90
2018-07-15T08:50:31.690Z,2.17
2018-07-15T08:52:59.953Z,1.93
2018-07-15T08:55:28.225Z,1.87
2018-07-15T08:57:56.525Z,1.87
2018-07-15T09:00:24.815Z,1.67
2018-07-15T09:02:53.127Z,1.50
2018-07-15T09:05:21.494Z,1.80
2018-07-15T09:07:50.195Z,1.97
2018-07-15T09:10:22.086Z,1.97
2018-07-15T09:12:50.373Z,1.93
2018-07-15T09:15:18.669Z,1.90
2018-07-15T09:17:46.986Z,1.80
2018-07-15T09:20:15.248Z,1.70
2018-07-15T09:22:43.895Z,1.67
2018-07-15T09:25:12.213Z,1.83
2018-07-15T09:27:40.510Z,1.83
2018-07-15T09:30:09.091Z,1.90
2018-07-15T09:32:37.576Z,2.00
2018-07-15T09:35:05.860Z,1.90
2018-07-15T09:37:34.159Z,2.00
2018-07-15T09:40:02.563Z,1.80
2018-07-15T09:42:30.811Z,1.90
2018-07-15T09:44:59.107Z,2.20
2018-07-15T09:47:27.405Z,2.00
2018-07-15T09:49:55.685Z,1.80
2018-07-15T09:52:23.988Z,1.80
2018-07-15T09:54:52.295Z,1.70
2018-07-15T09:57:20.619Z,1.77
2018-07-15T09:59:48.959Z,1.70
2018-07-15T10:02:17.219Z,1.87
2018-07-15T10:04:45.568Z,1.80
2018-07-15T10:07:14.050Z,1.70
2018-07-15T10:09:42.357Z,1.97
2018-07-15T10:12:10.586Z,1.97
2018-07-15T10:14:38.916Z,1.87
2018-07-15T10:17:07.568Z,1.80
2018-07-15T10:19:35.855Z,1.73
2018-07-15T10:22:04.176Z,1.90
2018-07-15T10:24:32.428Z,2.03
2018-07-15T10:27:00.699Z,1.97
2018-07-15T10:29:28.975Z,2.13
2018-07-15T10:31:57.286Z,2.00
2018-07-15T10:34:25.540Z,2.10
2018-07-15T10:36:53.804Z,2.00
2018-07-15T10:39:22.157Z,1.97
2018-07-15T10:41:50.468Z,1.80
2018-07-15T10:44:18.762Z,1.77
2018-07-15T10:46:47.115Z,1.80
2018-07-15T10:49:15.363Z,1.77
2018-07-15T10:51:43.686Z,1.93
2018-07-15T10:54:12.110Z,1.70
2018-07-15T10:56:40.366Z,1.70
2018-07-15T10:59:08.749Z,1.70
2018-07-15T11:01:37.104Z,1.70
2018-07-15T11:04:05.450Z,1.80
2018-07-15T11:06:34.096Z,1.60
2018-07-15T11:09:02.471Z,1.70
2018-07-15T11:11:30.778Z,1.70
2018-07-15T11:13:59.075Z,1.50
2018-07-15T11:16:27.474Z,1.60
2018-07-15T11:18:55.848Z,1.80
2018-07-15T11:21:24.119Z,1.70
2018-07-15T11:23:52.382Z,1.30
2018-07-15T11:26:20.677Z,1.90
2018-07-15T11:28:49.275Z,1.80
2018-07-15T11:31:17.585Z,2.17
2018-07-15T11:33:45.879Z,1.70
2018-07-15T11:36:14.273Z,1.70
2018-07-15T11:38:42.591Z,1.53
2018-07-15T11:41:10.911Z,1.60
2018-07-15T11:43:39.396Z,1.70
2018-07-15T11:46:09.567Z,1.70
2018-07-15T11:48:37.882Z,1.80
2018-07-15T11:51:06.147Z,2.07
2018-07-15T11:53:34.520Z,1.80
2018-07-15T11:56:03.287Z,1.80
2018-07-15T11:58:31.550Z,2.10
2018-07-15T12:00:59.835Z,2.00
2018-07-15T12:03:28.511Z,1.87
2018-07-15T12:05:56.789Z,1.80
2018-07-15T12:08:25.048Z,1.90
2018-07-15T12:10:53.449Z,2.10
2018-07-15T12:13:21.781Z,1.87
2018-07-15T12:15:50.382Z,1.93
2018-07-15T12:18:18.629Z,2.03
2018-07-15T12:20:46.915Z,1.70
2018-07-15T12:23:15.243Z,2.00
2018-07-15T12:25:43.543Z,2.10
2018-07-15T12:28:11.855Z,2.00
2018-07-15T12:30:40.152Z,2.13
2018-07-15T12:33:08.458Z,1.90
2018-07-15T12:35:36.792Z,1.70
2018-07-15T12:38:05.215Z,2.03
2018-07-15T12:40:33.537Z,1.80
2018-07-15T12:43:01.864Z,1.97
2018-07-15T12:45:30.127Z,1.80
2018-07-15T12:47:58.403Z,1.60
2018-07-15T12:50:26.708Z,1.77
2018-07-15T12:52:54.985Z,1.63
2018-07-15T12:55:23.296Z,1.80
2018-07-15T12:57:51.590Z,1.80
2018-07-15T13:00:19.961Z,1.80
2018-07-15T13:02:48.234Z,1.93
2018-07-15T13:05:16.584Z,1.90
2018-07-15T13:07:45.040Z,2.00
2018-07-15T13:10:13.293Z,1.97
2018-07-15T13:12:41.641Z,1.90
2018-07-15T13:15:09.899Z,1.90
2018-07-15T13:17:38.294Z,1.97
2018-07-15T13:20:06.734Z,2.10
2018-07-15T13:22:35.005Z,2.00
2018-07-15T13:25:03.477Z,1.77
2018-07-15T13:27:32.009Z,2.00
2018-07-15T13:30:00.424Z,1.87
2018-07-15T13:32:29.726Z,2.00
2018-07-15T13:34:58.189Z,2.00
2018-07-15T13:37:26.504Z,1.97
2018-07-15T13:39:54.820Z,1.90
2018-07-15T13:42:23.112Z,2.00
2018-07-15T13:44:51.457Z,2.10
2018-07-15T13:47:19.801Z,1.83
2018-07-15T13:49:48.080Z,2.00
2018-07-15T13:52:16.392Z,1.67
2018-07-15T13:54:44.765Z,1.70
2018-07-15T13:57:13.041Z,1.67
2018-07-15T13:59:41.390Z,1.70
2018-07-15T14:02:09.708Z,1.80
2018-07-15T14:04:37.992Z,1.80
2018-07-15T14:07:06.362Z,1.90
2018-07-15T14:09:35.903Z,2.00
2018-07-15T14:12:04.219Z,1.72
2018-07-15T14:14:32.496Z,1.47
2018-07-15T14:17:00.927Z,1.70
2018-07-15T14:19:29.346Z,1.90
2018-07-15T14:21:57.632Z,1.60
2018-07-15T14:24:25.900Z,1.60
2018-07-15T14:26:54.255Z,1.87
2018-07-15T14:29:22.652Z,2.20
2018-07-15T14:31:51.098Z,1.73
2018-07-15T14:34:19.373Z,1.90
2018-07-15T14:36:47.689Z,1.93
2018-07-15T14:39:16.184Z,2.00
2018-07-15T14:41:44.487Z,1.63
2018-07-15T14:44:12.852Z,1.93
2018-07-15T14:46:41.132Z,1.50
2018-07-15T14:49:09.726Z,1.90
2018-07-15T14:51:37.976Z,2.00
2018-07-15T14:54:06.539Z,1.77
2018-07-15T14:56:34.874Z,1.80
2018-07-15T14:59:03.206Z,1.83
2018-07-15T15:01:31.519Z,1.90
2018-07-15T15:03:59.790Z,1.93
2018-07-15T15:06:28.140Z,2.00
2018-07-15T15:08:56.397Z,1.80
2018-07-15T15:11:24.948Z,1.83
2018-07-15T15:13:53.278Z,1.97
2018-07-15T15:16:21.560Z,2.00
2018-07-15T15:18:49.884Z,1.83
2018-07-15T15:21:18.158Z,1.70
2018-07-15T15:23:46.515Z,1.70
2018-07-15T15:26:14.851Z,1.90
2018-07-15T15:28:43.122Z,1.90
2018-07-15T15:31:15.028Z,1.93
2018-07-15T15:33:43.350Z,1.90
2018-07-15T15:36:11.607Z,2.00
2018-07-15T15:38:39.939Z,1.93
2018-07-15T15:41:08.268Z,1.90
2018-07-15T15:43:36.589Z,1.80
2018-07-15T15:46:04.928Z,1.90
2018-07-15T15:48:33.493Z,1.80
2018-07-15T15:51:01.844Z,1.82
2018-07-15T15:53:30.591Z,2.00
2018-07-15T15:55:58.847Z,1.95
2018-07-15T15:58:27.130Z,1.98
2018-07-15T16:00:55.451Z,2.00
2018-07-15T16:03:24.043Z,1.70
2018-07-15T16:05:52.350Z,2.05
2018-07-15T16:08:20.737Z,1.90
2018-07-15T16:10:49.003Z,2.00
2018-07-15T16:13:17.305Z,1.90
2018-07-15T16:15:45.753Z,1.95
2018-07-15T16:18:14.078Z,2.00
2018-07-15T16:20:42.346Z,1.85
2018-07-15T16:23:10.705Z,2.07
2018-07-15T16:25:38.992Z,1.93
2018-07-15T16:28:07.349Z,2.00
2018-07-15T16:30:35.721Z,2.00
2018-07-15T16:33:04.193Z,2.50
2018-07-15T16:35:32.483Z,2.10
2018-07-15T16:38:00.940Z,2.05
2018-07-15T16:40:29.243Z,1.90
2018-07-15T16:42:57.540Z,1.97
2018-07-15T16:45:25.924Z,2.17
2018-07-15T16:47:54.210Z,2.20
2018-07-15T16:50:22.488Z,2.27
2018-07-15T16:52:50.763Z,2.10
2018-07-15T16:55:19.028Z,1.90
2018-07-15T16:57:47.456Z,1.93
2018-07-15T17:00:15.706Z,2.17
2018-07-15T17:02:44.007Z,2.10
2018-07-15T17:05:12.299Z,2.20
2018-07-15T17:07:40.589Z,3.00
2018-07-15T17:10:08.864Z,2.12
2018-07-15T17:12:37.202Z,2.40
2018-07-15T17:15:05.761Z,1.90
2018-07-15T17:17:34.271Z,3.23
2018-07-15T17:20:02.555Z,2.53
2018-07-15T17:22:30.849Z,2.07
2018-07-15T17:24:59.224Z,2.33
2018-07-15T17:27:27.488Z,2.40
2018-07-15T17:29:55.772Z,2.83
2018-07-15T17:32:24.099Z,2.77
2018-07-15T17:34:52.382Z,3.70
2018-07-15T17:37:20.776Z,3.40
2018-07-15T17:39:49.098Z,2.30
2018-07-15T17:42:17.365Z,3.00
2018-07-15T17:44:45.730Z,3.00
2018-07-15T17:47:14.012Z,3.40
2018-07-15T17:49:42.281Z,2.97
2018-07-15T17:52:10.631Z,3.10
2018-07-15T17:54:38.910Z,5.93
2018-07-15T17:57:07.212Z,10.53
2018-07-15T17:59:35.510Z,6.87
2018-07-15T18:02:03.861Z,4.43
2018-07-15T18:04:32.188Z,2.60
2018-07-15T18:07:00.527Z,2.60
2018-07-15T18:09:28.800Z,2.30
2018-07-15T18:11:57.109Z,2.20
2018-07-15T18:14:25.457Z,2.30
2018-07-15T18:16:53.846Z,2.30
2018-07-15T18:19:22.119Z,2.30
2018-07-15T18:21:50.578Z,2.40
2018-07-15T18:24:18.861Z,2.40
2018-07-15T18:26:47.204Z,2.50
2018-07-15T18:29:15.461Z,2.70
2018-07-15T18:31:43.862Z,2.23
2018-07-15T18:34:12.213Z,2.30
2018-07-15T18:36:40.654Z,2.23
2018-07-15T18:39:09.377Z,2.40
2018-07-15T18:41:37.649Z,2.27
2018-07-15T18:44:06.314Z,2.47
2018-07-15T18:46:34.623Z,2.30
2018-07-15T18:49:03.085Z,2.30
2018-07-15T18:51:31.398Z,2.27
2018-07-15T18:53:59.666Z,2.40
2018-07-15T18:56:30.326Z,2.20
2018-07-15T18:58:58.843Z,2.50
2018-07-15T19:01:27.108Z,2.63
2018-07-15T19:03:55.455Z,2.23
2018-07-15T19:06:28.556Z,2.50
2018-07-15T19:08:57.181Z,2.70
2018-07-15T19:11:25.537Z,2.60
2018-07-15T19:13:54.433Z,2.50
2018-07-15T19:16:22.788Z,2.17
2018-07-15T19:18:51.101Z,2.53
2018-07-15T19:21:19.366Z,2.30
2018-07-15T19:23:47.636Z,2.60
2018-07-15T19:26:16.440Z,2.27
2018-07-15T19:28:44.951Z,2.67
2018-07-15T19:31:13.557Z,2.60
2018-07-15T19:33:42.213Z,2.50
2018-07-15T19:36:10.629Z,2.77
2018-07-15T19:38:39.305Z,2.53
2018-07-15T19:41:07.803Z,2.60
2018-07-15T19:43:37.544Z,2.50
2018-07-15T19:46:05.903Z,2.43
2018-07-15T19:48:34.164Z,2.50
2018-07-15T19:51:02.507Z,2.30
2018-07-15T19:53:30.799Z,2.30
2018-07-15T19:55:59.102Z,2.50
2018-07-15T19:58:27.363Z,2.80
2018-07-15T20:00:55.696Z,2.50
2018-07-15T20:03:23.927Z,2.70
2018-07-15T20:05:52.549Z,2.60
2018-07-15T20:08:20.795Z,2.60
2018-07-15T20:10:49.066Z,2.70
2018-07-15T20:13:20.618Z,2.83
2018-07-15T20:15:48.887Z,2.77
2018-07-15T20:18:17.453Z,2.53
2018-07-15T20:20:45.764Z,3.23
2018-07-15T20:23:14.090Z,2.87
2018-07-15T20:25:42.414Z,2.70
2018-07-15T20:28:10.799Z,2.70
2018-07-15T20:30:39.936Z,2.73
2018-07-15T20:33:08.267Z,2.70
2018-07-15T20:35:36.773Z,2.80
2018-07-15T20:38:05.142Z,2.77
2018-07-15T20:40:33.508Z,2.90
2018-07-15T20:43:01.790Z,3.20
2018-07-15T20:45:30.102Z,6.03
2018-07-15T20:47:58.397Z,5.60
2018-07-15T20:50:26.723Z,3.77
2018-07-15T20:52:55.443Z,3.70
2018-07-15T20:55:23.680Z,3.90
2018-07-15T20:57:52.134Z,3.90
2018-07-15T21:00:21.729Z,3.30
2018-07-15T21:02:50.036Z,3.40
2018-07-15T21:05:18.512Z,3.50
2018-07-15T21:07:46.795Z,3.70
2018-07-15T21:10:15.147Z,3.33
2018-07-15T21:12:43.489Z,3.43
2018-07-15T21:15:11.741Z,3.50
2018-07-15T21:17:39.985Z,3.40
2018-07-15T21:20:08.328Z,3.23
2018-07-15T21:22:36.692Z,3.20
2018-07-15T21:25:04.969Z,3.13
2018-07-15T21:27:33.334Z,2.93
2018-07-15T21:30:01.603Z,3.00
2018-07-15T21:32:30.267Z,3.07
2018-07-15T21:34:58.571Z,3.43
2018-07-15T21:37:26.893Z,3.47
2018-07-15T21:39:55.249Z,3.50
2018-07-15T21:42:23.597Z,3.77
2018-07-15T21:44:51.924Z,3.53
2018-07-15T21:47:20.212Z,3.30
2018-07-15T21:49:48.486Z,3.60
2018-07-15T21:52:16.825Z,3.97
2018-07-15T21:54:45.119Z,3.70
2018-07-15T21:57:13.397Z,4.07
2018-07-15T21:59:41.761Z,3.70
2018-07-15T22:02:10.118Z,3.77
2018-07-15T22:04:38.454Z,3.70
2018-07-15T22:07:18.049Z,3.53
2018-07-15T22:10:03.605Z,3.47
2018-07-15T22:12:31.850Z,3.50
2018-07-15T22:15:00.128Z,3.50
2018-07-15T22:17:28.428Z,3.20
2018-07-15T22:19:56.927Z,3.33
2018-07-15T22:22:25.297Z,3.27
2018-07-15T22:24:53.563Z,3.17
2018-07-15T22:27:21.937Z,3.60
2018-07-15T22:29:50.211Z,3.43
2018-07-15T22:32:18.511Z,3.60
2018-07-15T22:34:46.805Z,3.20
2018-07-15T22:37:15.115Z,3.80
2018-07-15T22:39:43.398Z,3.47
2018-07-15T22:42:11.923Z,3.50
2018-07-15T22:44:40.187Z,3.67
2018-07-15T22:47:08.472Z,3.30
2018-07-15T22:49:36.769Z,3.73
2018-07-15T22:52:05.041Z,3.53
2018-07-15T22:54:33.308Z,4.00
2018-07-15T22:57:01.623Z,3.87
2018-07-15T22:59:29.898Z,3.97
2018-07-15T23:01:58.215Z,3.90
2018-07-15T23:05:40.011Z,4.23
2018-07-15T23:08:08.858Z,4.23
2018-07-15T23:10:37.299Z,4.20
2018-07-15T23:13:06.653Z,4.17
2018-07-15T23:15:35.444Z,4.40
2018-07-15T23:18:03.742Z,4.60
2018-07-15T23:20:32.871Z,4.17
2018-07-15T23:23:02.003Z,4.43
2018-07-15T23:25:30.856Z,4.40
2018-07-15T23:27:59.735Z,4.23
2018-07-15T23:30:28.638Z,4.10
2018-07-15T23:32:56.915Z,4.80
2018-07-15T23:35:25.347Z,4.30
2018-07-15T23:37:53.665Z,4.20
2018-07-15T23:40:21.950Z,4.27
2018-07-15T23:42:50.899Z,4.67
2018-07-15T23:45:19.145Z,4.20
2018-07-15T23:47:47.428Z,4.70
2018-07-15T23:50:15.686Z,4.70
2018-07-15T23:52:43.972Z,4.90
2018-07-15T23:55:12.228Z,4.60
2018-07-15T23:57:40.485Z,5.37
